createdAt,value
2019-02-08T00:00:36.791Z,388
2019-02-08T00:01:44.010Z,388
2019-02-08T00:02:51.212Z,388
2019-02-08T00:03:58.400Z,387
2019-02-08T00:05:05.323Z,388
2019-02-08T00:06:12.251Z,387
2019-02-08T00:07:19.436Z,387
2019-02-08T00:08:26.637Z,386
2019-02-08T00:09:33.834Z,386
2019-02-08T00:10:41.028Z,387
2019-02-08T00:11:48.222Z,387
2019-02-08T00:12:55.414Z,387
2019-02-08T00:14:02.626Z,388
2019-02-08T00:15:10.232Z,387
2019-02-08T00:16:18.163Z,387
2019-02-08T00:17:26.431Z,387
2019-02-08T00:18:34.413Z,386
2019-02-08T00:19:42.912Z,386
2019-02-08T00:20:51.333Z,386
2019-02-08T00:21:58.987Z,387
2019-02-08T00:23:06.847Z,386
2019-02-08T00:24:13.764Z,385
2019-02-08T00:25:20.987Z,386
2019-02-08T00:26:28.204Z,385
2019-02-08T00:27:35.389Z,386
2019-02-08T00:28:42.578Z,385
2019-02-08T00:29:49.776Z,385
2019-02-08T00:30:56.701Z,385
2019-02-08T00:32:03.927Z,385
2019-02-08T00:33:11.118Z,385
2019-02-08T00:34:18.312Z,384
2019-02-08T00:35:25.504Z,385
2019-02-08T00:36:32.696Z,385
2019-02-08T00:37:39.897Z,384
2019-02-08T00:38:46.541Z,386
2019-02-08T00:39:53.193Z,385
2019-02-08T00:41:00.121Z,384
2019-02-08T00:42:07.315Z,385
2019-02-08T00:43:14.232Z,385
2019-02-08T00:44:21.426Z,384
2019-02-08T00:45:28.621Z,384
2019-02-08T00:46:35.811Z,385
2019-02-08T00:47:43.002Z,384
2019-02-08T00:48:50.210Z,384
2019-02-08T00:49:57.398Z,384
2019-02-08T00:51:04.589Z,384
2019-02-08T00:52:11.504Z,384
2019-02-08T00:53:18.692Z,384
2019-02-08T00:54:25.888Z,384
2019-02-08T00:55:32.976Z,385
2019-02-08T00:56:40.744Z,384
2019-02-08T00:57:49.119Z,384
2019-02-08T00:58:57.529Z,383
2019-02-08T01:00:05.525Z,383
2019-02-08T01:01:13.329Z,383
2019-02-08T01:02:20.849Z,383
2019-02-08T01:03:28.040Z,384
2019-02-08T01:04:35.235Z,384
2019-02-08T01:05:42.163Z,383
2019-02-08T01:06:49.354Z,384
2019-02-08T01:07:56.542Z,383
2019-02-08T01:09:03.730Z,383
2019-02-08T01:10:10.922Z,384
2019-02-08T01:11:18.138Z,383
2019-02-08T01:12:25.062Z,383
2019-02-08T01:13:31.980Z,383
2019-02-08T01:14:39.169Z,383
2019-02-08T01:15:46.360Z,384
2019-02-08T01:16:53.554Z,383
2019-02-08T01:18:00.773Z,383
2019-02-08T01:19:07.679Z,382
2019-02-08T01:20:14.873Z,382
2019-02-08T01:21:21.795Z,382
2019-02-08T01:22:28.991Z,382
2019-02-08T01:23:42.009Z,382
2019-02-08T01:24:49.207Z,383
2019-02-08T01:25:56.404Z,383
2019-02-08T01:27:03.598Z,384
2019-02-08T01:28:10.792Z,383
2019-02-08T01:29:17.988Z,381
2019-02-08T01:30:25.180Z,382
2019-02-08T01:31:32.600Z,381
2019-02-08T01:32:39.770Z,381
2019-02-08T01:33:46.959Z,380
2019-02-08T01:34:54.155Z,380
2019-02-08T01:36:01.343Z,380
2019-02-08T01:37:07.986Z,380
2019-02-08T01:38:15.177Z,380
2019-02-08T01:39:22.370Z,380
2019-02-08T01:40:29.289Z,381
2019-02-08T01:41:36.483Z,381
2019-02-08T01:42:43.676Z,381
2019-02-08T01:43:50.866Z,381
2019-02-08T01:44:58.060Z,382
2019-02-08T01:46:04.983Z,382
2019-02-08T01:47:11.895Z,382
2019-02-08T01:48:18.820Z,381
2019-02-08T01:49:26.007Z,382
2019-02-08T01:50:33.195Z,382
2019-02-08T01:51:40.113Z,382
2019-02-08T01:52:47.043Z,382
2019-02-08T01:53:54.231Z,382
2019-02-08T01:55:01.426Z,382
2019-02-08T01:56:08.629Z,382
2019-02-08T01:57:15.551Z,382
2019-02-08T01:58:22.752Z,382
2019-02-08T01:59:29.941Z,382
2019-02-08T02:00:37.131Z,382
2019-02-08T02:01:44.322Z,382
2019-02-08T02:02:51.520Z,382
2019-02-08T02:03:58.715Z,381
2019-02-08T02:05:05.638Z,382
2019-02-08T02:06:12.825Z,381
2019-02-08T02:07:20.016Z,382
2019-02-08T02:08:27.213Z,381
2019-02-08T02:09:34.402Z,381
2019-02-08T02:10:41.041Z,381
2019-02-08T02:11:48.235Z,380
2019-02-08T02:12:55.429Z,380
2019-02-08T02:14:02.627Z,379
2019-02-08T02:15:09.821Z,380
2019-02-08T02:16:16.465Z,380
2019-02-08T02:17:23.668Z,380
2019-02-08T02:18:30.855Z,380
2019-02-08T02:19:37.767Z,380
2019-02-08T02:20:44.959Z,378
2019-02-08T02:21:52.145Z,379
2019-02-08T02:22:59.543Z,378
2019-02-08T02:24:06.733Z,379
2019-02-08T02:25:13.924Z,379
2019-02-08T02:26:21.117Z,379
2019-02-08T02:27:28.068Z,379
2019-02-08T02:28:35.257Z,380
2019-02-08T02:29:42.449Z,381
2019-02-08T02:30:49.392Z,380
2019-02-08T02:31:56.580Z,382
2019-02-08T02:33:03.496Z,381
2019-02-08T02:34:10.685Z,382
2019-02-08T02:35:17.609Z,381
2019-02-08T02:36:24.807Z,381
2019-02-08T02:37:32.004Z,381
2019-02-08T02:38:38.921Z,381
2019-02-08T02:39:46.117Z,381
2019-02-08T02:40:53.033Z,382
2019-02-08T02:42:00.225Z,381
2019-02-08T02:43:07.417Z,381
2019-02-08T02:44:14.606Z,381
2019-02-08T02:45:21.532Z,380
2019-02-08T02:46:28.720Z,381
2019-02-08T02:47:35.640Z,381
2019-02-08T02:48:42.831Z,382
2019-02-08T02:49:50.030Z,381
2019-02-08T02:50:57.221Z,381
2019-02-08T02:52:04.411Z,381
2019-02-08T02:53:11.595Z,381
2019-02-08T02:54:18.807Z,381
2019-02-08T02:55:25.727Z,381
2019-02-08T02:56:32.917Z,381
2019-02-08T02:57:40.121Z,381
2019-02-08T02:58:47.300Z,381
2019-02-08T02:59:54.219Z,381
2019-02-08T03:01:01.408Z,381
2019-02-08T03:02:08.336Z,381
2019-02-08T03:03:15.529Z,381
2019-02-08T03:04:22.167Z,380
2019-02-08T03:05:29.084Z,380
2019-02-08T03:06:36.275Z,380
2019-02-08T03:07:43.457Z,379
2019-02-08T03:08:50.368Z,381
2019-02-08T03:09:57.290Z,380
2019-02-08T03:11:04.482Z,380
2019-02-08T03:12:11.671Z,380
2019-02-08T03:13:18.865Z,381
2019-02-08T03:14:26.055Z,382
2019-02-08T03:15:33.267Z,381
2019-02-08T03:16:40.450Z,381
2019-02-08T03:17:47.374Z,381
2019-02-08T03:18:54.567Z,382
2019-02-08T03:20:01.763Z,382
2019-02-08T03:21:08.987Z,382
2019-02-08T03:22:16.163Z,382
2019-02-08T03:23:23.085Z,382
2019-02-08T03:24:30.277Z,382
2019-02-08T03:25:37.203Z,382
2019-02-08T03:26:44.391Z,381
2019-02-08T03:27:51.311Z,382
2019-02-08T03:28:58.501Z,382
2019-02-08T03:30:05.691Z,381
2019-02-08T03:31:12.883Z,381
2019-02-08T03:32:20.080Z,381
2019-02-08T03:33:27.322Z,381
2019-02-08T03:34:34.556Z,381
2019-02-08T03:35:41.746Z,381
2019-02-08T03:36:48.939Z,381
2019-02-08T03:37:57.461Z,380
2019-02-08T03:39:04.651Z,380
2019-02-08T03:40:11.843Z,380
2019-02-08T03:41:19.038Z,379
2019-02-08T03:42:26.237Z,380
2019-02-08T03:43:33.433Z,380
2019-02-08T03:44:40.360Z,380
2019-02-08T03:45:47.283Z,380
2019-02-08T03:46:54.193Z,380
2019-02-08T03:48:01.388Z,379
2019-02-08T03:49:08.581Z,380
2019-02-08T03:50:15.501Z,379
2019-02-08T03:51:22.726Z,379
2019-02-08T03:52:29.898Z,379
2019-02-08T03:53:37.098Z,380
2019-02-08T03:54:44.284Z,380
2019-02-08T03:55:59.580Z,379
2019-02-08T03:57:06.505Z,380
2019-02-08T03:58:13.695Z,380
2019-02-08T03:59:20.612Z,381
2019-02-08T04:00:27.803Z,380
2019-02-08T04:01:34.450Z,380
2019-02-08T04:02:41.387Z,380
2019-02-08T04:03:48.565Z,379
2019-02-08T04:04:55.482Z,379
2019-02-08T04:06:02.400Z,378
2019-02-08T04:07:09.594Z,379
2019-02-08T04:08:16.807Z,380
2019-02-08T04:09:24.001Z,379
2019-02-08T04:10:30.919Z,380
2019-02-08T04:11:38.118Z,380
2019-02-08T04:12:45.314Z,380
2019-02-08T04:13:52.505Z,379
2019-02-08T04:14:59.698Z,379
2019-02-08T04:16:07.007Z,378
2019-02-08T04:17:13.926Z,378
2019-02-08T04:18:21.122Z,378
2019-02-08T04:19:28.336Z,378
2019-02-08T04:20:35.526Z,378
2019-02-08T04:21:42.719Z,377
2019-02-08T04:22:49.907Z,377
2019-02-08T04:23:57.105Z,377
2019-02-08T04:25:04.289Z,377
2019-02-08T04:26:11.484Z,377
2019-02-08T04:27:18.690Z,377
2019-02-08T04:28:25.873Z,377
2019-02-08T04:29:33.067Z,377
2019-02-08T04:30:40.257Z,378
2019-02-08T04:31:47.444Z,378
2019-02-08T04:32:54.366Z,378
2019-02-08T04:34:01.586Z,377
2019-02-08T04:35:08.797Z,376
2019-02-08T04:36:15.985Z,377
2019-02-08T04:37:23.172Z,377
2019-02-08T04:38:30.361Z,377
2019-02-08T04:39:37.567Z,376
2019-02-08T04:40:44.758Z,377
2019-02-08T04:41:52.164Z,378
2019-02-08T04:42:59.360Z,377
2019-02-08T04:44:06.549Z,376
2019-02-08T04:45:13.467Z,377
2019-02-08T04:46:20.392Z,377
2019-02-08T04:47:27.588Z,377
2019-02-08T04:48:34.778Z,376
2019-02-08T04:49:41.972Z,376
2019-02-08T04:50:48.898Z,375
2019-02-08T04:51:56.090Z,376
2019-02-08T04:53:03.285Z,375
2019-02-08T04:54:10.475Z,376
2019-02-08T04:55:17.661Z,375
2019-02-08T04:56:24.854Z,375
2019-02-08T04:57:31.773Z,375
2019-02-08T04:58:38.966Z,376
2019-02-08T04:59:46.152Z,375
2019-02-08T05:00:53.350Z,375
2019-02-08T05:02:00.547Z,374
2019-02-08T05:03:07.736Z,375
2019-02-08T05:04:14.933Z,375
2019-02-08T05:05:22.127Z,375
2019-02-08T05:06:29.326Z,374
2019-02-08T05:07:36.516Z,375
2019-02-08T05:08:43.706Z,375
2019-02-08T05:09:50.903Z,375
2019-02-08T05:10:58.093Z,375
2019-02-08T05:12:05.017Z,374
2019-02-08T05:13:12.206Z,373
2019-02-08T05:14:19.399Z,374
2019-02-08T05:15:26.589Z,374
2019-02-08T05:16:33.504Z,373
2019-02-08T05:17:40.694Z,373
2019-02-08T05:18:47.889Z,373
2019-02-08T05:19:55.109Z,372
2019-02-08T05:21:02.300Z,373
2019-02-08T05:22:09.489Z,373
2019-02-08T05:23:16.402Z,373
2019-02-08T05:24:23.603Z,373
2019-02-08T05:25:30.797Z,373
2019-02-08T05:26:37.986Z,373
2019-02-08T05:27:44.627Z,371
2019-02-08T05:28:51.823Z,372
2019-02-08T05:29:59.012Z,371
2019-02-08T05:31:06.215Z,371
2019-02-08T05:32:13.408Z,372
2019-02-08T05:33:20.605Z,372
2019-02-08T05:34:27.801Z,372
2019-02-08T05:35:34.996Z,371
2019-02-08T05:36:41.921Z,372
2019-02-08T05:37:49.124Z,370
2019-02-08T05:38:56.321Z,371
2019-02-08T05:40:03.518Z,370
2019-02-08T05:41:10.441Z,370
2019-02-08T05:42:17.656Z,370
2019-02-08T05:43:24.855Z,370
2019-02-08T05:44:31.771Z,369
2019-02-08T05:45:38.967Z,370
2019-02-08T05:46:45.615Z,370
2019-02-08T05:47:52.817Z,369
2019-02-08T05:48:59.727Z,369
2019-02-08T05:50:06.917Z,369
2019-02-08T05:51:14.107Z,369
2019-02-08T05:52:21.312Z,369
2019-02-08T05:53:28.505Z,369
2019-02-08T05:54:35.698Z,369
2019-02-08T05:55:42.617Z,369
2019-02-08T05:56:49.817Z,368
2019-02-08T05:57:57.006Z,370
2019-02-08T05:59:04.204Z,369
2019-02-08T06:00:11.386Z,369
2019-02-08T06:01:18.307Z,368
2019-02-08T06:02:25.506Z,368
2019-02-08T06:03:32.426Z,369
2019-02-08T06:04:39.343Z,368
2019-02-08T06:05:46.267Z,368
2019-02-08T06:06:53.184Z,368
2019-02-08T06:08:00.394Z,368
2019-02-08T06:09:07.571Z,368
2019-02-08T06:10:14.761Z,369
2019-02-08T06:11:21.950Z,368
2019-02-08T06:12:29.138Z,369
2019-02-08T06:13:36.331Z,368
2019-02-08T06:14:43.251Z,368
2019-02-08T06:15:50.445Z,368
2019-02-08T06:16:57.637Z,369
2019-02-08T06:18:04.848Z,369
2019-02-08T06:19:11.791Z,370
2019-02-08T06:20:18.980Z,369
2019-02-08T06:21:26.169Z,370
2019-02-08T06:22:33.359Z,370
2019-02-08T06:23:40.003Z,370
2019-02-08T06:24:47.196Z,369
2019-02-08T06:25:54.386Z,369
2019-02-08T06:27:01.577Z,368
2019-02-08T06:28:08.780Z,368
2019-02-08T06:29:15.970Z,368
2019-02-08T06:30:22.894Z,368
2019-02-08T06:31:29.544Z,369
2019-02-08T06:32:36.741Z,368
2019-02-08T06:33:43.933Z,368
2019-02-08T06:34:51.133Z,368
2019-02-08T06:35:58.051Z,367
2019-02-08T06:37:05.267Z,368
2019-02-08T06:38:12.460Z,366
2019-02-08T06:39:19.651Z,367
2019-02-08T06:40:26.860Z,367
2019-02-08T06:41:34.055Z,366
2019-02-08T06:42:41.249Z,367
2019-02-08T06:43:48.439Z,367
2019-02-08T06:44:55.638Z,367
2019-02-08T06:46:02.827Z,367
2019-02-08T06:47:10.018Z,366
2019-02-08T06:48:17.209Z,365
2019-02-08T06:49:24.401Z,366
2019-02-08T06:50:31.596Z,366
2019-02-08T06:51:38.793Z,366
2019-02-08T06:52:45.978Z,366
2019-02-08T06:53:53.170Z,365
2019-02-08T06:55:00.365Z,364
2019-02-08T06:56:07.566Z,365
2019-02-08T06:57:14.757Z,365
2019-02-08T06:58:21.948Z,365
2019-02-08T06:59:29.181Z,365
2019-02-08T07:00:36.097Z,365
2019-02-08T07:01:43.287Z,364
2019-02-08T07:02:50.482Z,364
2019-02-08T07:03:57.675Z,364
2019-02-08T07:05:04.873Z,364
2019-02-08T07:06:11.788Z,364
2019-02-08T07:07:18.704Z,363
2019-02-08T07:08:25.890Z,364
2019-02-08T07:09:32.811Z,363
2019-02-08T07:10:41.398Z,363
2019-02-08T07:11:48.701Z,363
2019-02-08T07:12:55.630Z,363
2019-02-08T07:14:02.827Z,364
2019-02-08T07:15:10.016Z,363
2019-02-08T07:16:17.210Z,363
2019-02-08T07:17:24.403Z,363
2019-02-08T07:18:31.594Z,363
2019-02-08T07:19:38.782Z,362
2019-02-08T07:20:45.976Z,362
2019-02-08T07:21:52.895Z,363
2019-02-08T07:23:00.087Z,362
2019-02-08T07:24:07.009Z,363
2019-02-08T07:25:19.489Z,362
2019-02-08T07:26:26.680Z,361
2019-02-08T07:27:33.606Z,362
2019-02-08T07:28:40.812Z,362
2019-02-08T07:29:47.725Z,362
2019-02-08T07:30:54.642Z,361
2019-02-08T07:32:01.830Z,361
2019-02-08T07:33:09.128Z,360
2019-02-08T07:34:16.046Z,362
2019-02-08T07:35:23.242Z,362
2019-02-08T07:36:30.442Z,362
2019-02-08T07:37:37.647Z,361
2019-02-08T07:38:44.838Z,362
2019-02-08T07:39:52.034Z,361
2019-02-08T07:40:58.954Z,361
2019-02-08T07:42:05.878Z,360
2019-02-08T07:43:13.069Z,361
2019-02-08T07:44:20.256Z,361
2019-02-08T07:45:27.175Z,361
2019-02-08T07:46:34.370Z,361
2019-02-08T07:47:41.010Z,360
2019-02-08T07:48:47.930Z,360
2019-02-08T07:49:54.852Z,360
2019-02-08T07:51:02.051Z,360
2019-02-08T07:52:09.244Z,360
2019-02-08T07:53:16.155Z,359
2019-02-08T07:54:23.347Z,359
2019-02-08T07:55:30.540Z,359
2019-02-08T07:56:37.730Z,359
2019-02-08T07:57:44.649Z,359
2019-02-08T07:58:51.843Z,359
2019-02-08T07:59:59.043Z,359
2019-02-08T08:01:06.232Z,359
2019-02-08T08:02:14.893Z,360
2019-02-08T08:03:22.096Z,359
2019-02-08T08:04:29.288Z,359
2019-02-08T08:05:36.482Z,360
2019-02-08T08:06:43.679Z,360
2019-02-08T08:07:50.874Z,360
2019-02-08T08:08:58.070Z,359
2019-02-08T08:10:04.999Z,359
2019-02-08T08:11:12.184Z,359
2019-02-08T08:12:19.376Z,359
2019-02-08T08:13:28.185Z,359
2019-02-08T08:14:35.384Z,359
2019-02-08T08:15:42.324Z,360
2019-02-08T08:16:49.237Z,359
2019-02-08T08:17:56.153Z,359
2019-02-08T08:19:03.350Z,359
2019-02-08T08:20:10.547Z,360
2019-02-08T08:21:17.472Z,360
2019-02-08T08:22:24.676Z,359
2019-02-08T08:23:31.869Z,359
2019-02-08T08:24:39.055Z,358
2019-02-08T08:25:45.975Z,358
2019-02-08T08:26:53.165Z,358
2019-02-08T08:28:00.360Z,358
2019-02-08T08:29:07.289Z,358
2019-02-08T08:30:14.483Z,358
2019-02-08T08:31:21.405Z,358
2019-02-08T08:32:28.333Z,357
2019-02-08T08:33:35.528Z,356
2019-02-08T08:34:42.448Z,357
2019-02-08T08:35:49.369Z,357
2019-02-08T08:36:56.560Z,356
2019-02-08T08:38:03.474Z,356
2019-02-08T08:39:10.665Z,355
2019-02-08T08:40:17.862Z,353
2019-02-08T08:41:25.057Z,353
2019-02-08T08:42:32.255Z,353
2019-02-08T08:43:39.446Z,350
2019-02-08T08:44:46.654Z,346
2019-02-08T08:45:53.853Z,342
2019-02-08T08:47:01.055Z,340
2019-02-08T08:48:08.247Z,340
2019-02-08T08:49:15.447Z,340
2019-02-08T08:50:22.661Z,339
2019-02-08T08:51:29.858Z,340
2019-02-08T08:52:37.054Z,341
2019-02-08T08:53:45.014Z,339
2019-02-08T08:54:52.208Z,340
2019-02-08T08:55:59.392Z,340
2019-02-08T08:57:06.589Z,340
2019-02-08T08:58:13.789Z,341
2019-02-08T08:59:21.068Z,341
2019-02-08T09:00:28.259Z,341
2019-02-08T09:01:35.458Z,341
2019-02-08T09:02:42.638Z,342
2019-02-08T09:03:49.832Z,342
2019-02-08T09:04:57.028Z,341
2019-02-08T09:06:09.864Z,342
2019-02-08T09:07:17.611Z,340
2019-02-08T09:08:24.808Z,340
2019-02-08T09:09:32.001Z,341
2019-02-08T09:10:39.190Z,341
2019-02-08T09:11:46.387Z,342
2019-02-08T09:12:53.611Z,341
2019-02-08T09:14:00.530Z,340
2019-02-08T09:15:07.735Z,342
2019-02-08T09:16:15.140Z,341
2019-02-08T09:17:22.331Z,341
2019-02-08T09:18:29.523Z,342
2019-02-08T09:19:36.715Z,343
2019-02-08T09:20:43.913Z,341
2019-02-08T09:21:51.106Z,341
2019-02-08T09:22:58.022Z,340
2019-02-08T09:24:05.217Z,340
2019-02-08T09:25:12.413Z,339
2019-02-08T09:26:19.351Z,341
2019-02-08T09:27:26.279Z,340
2019-02-08T09:28:33.466Z,341
2019-02-08T09:29:40.659Z,340
2019-02-08T09:30:49.462Z,341
2019-02-08T09:31:56.651Z,341
2019-02-08T09:33:03.847Z,341
2019-02-08T09:34:11.051Z,342
2019-02-08T09:35:18.245Z,342
2019-02-08T09:36:25.439Z,342
2019-02-08T09:37:32.360Z,342
2019-02-08T09:38:39.553Z,342
2019-02-08T09:39:46.201Z,341
2019-02-08T09:40:53.401Z,342
2019-02-08T09:42:00.611Z,341
2019-02-08T09:43:07.802Z,342
2019-02-08T09:44:14.997Z,341
2019-02-08T09:45:21.915Z,340
2019-02-08T09:46:28.842Z,342
2019-02-08T09:47:36.038Z,340
2019-02-08T09:48:43.235Z,341
2019-02-08T09:49:50.429Z,340
2019-02-08T09:50:57.351Z,340
2019-02-08T09:52:04.545Z,339
2019-02-08T09:53:11.751Z,340
2019-02-08T09:54:18.947Z,339
2019-02-08T09:55:26.145Z,338
2019-02-08T09:56:33.064Z,337
2019-02-08T09:57:40.258Z,334
2019-02-08T09:58:47.189Z,336
2019-02-08T09:59:54.114Z,336
2019-02-08T10:01:01.343Z,335
2019-02-08T10:02:08.259Z,337
2019-02-08T10:03:15.454Z,337
2019-02-08T10:04:22.653Z,337
2019-02-08T10:05:29.848Z,338
2019-02-08T10:06:37.057Z,339
2019-02-08T10:07:43.971Z,338
2019-02-08T10:08:51.163Z,338
2019-02-08T10:09:58.352Z,339
2019-02-08T10:11:05.005Z,337
2019-02-08T10:12:12.199Z,338
2019-02-08T10:13:19.399Z,338
2019-02-08T10:14:26.595Z,338
2019-02-08T10:15:33.797Z,338
2019-02-08T10:16:40.727Z,338
2019-02-08T10:17:47.914Z,338
2019-02-08T10:18:55.114Z,340
2019-02-08T10:20:02.308Z,338
2019-02-08T10:21:09.238Z,339
2019-02-08T10:22:16.447Z,339
2019-02-08T10:23:23.639Z,338
2019-02-08T10:24:30.831Z,339
2019-02-08T10:25:37.491Z,338
2019-02-08T10:26:44.686Z,337
2019-02-08T10:27:51.881Z,336
2019-02-08T10:28:59.079Z,336
2019-02-08T10:30:06.292Z,335
2019-02-08T10:31:13.502Z,336
2019-02-08T10:32:20.688Z,336
2019-02-08T10:33:27.616Z,336
2019-02-08T10:34:34.818Z,337
2019-02-08T10:35:42.016Z,337
2019-02-08T10:36:49.212Z,337
2019-02-08T10:37:56.412Z,336
2019-02-08T10:39:03.602Z,335
2019-02-08T10:40:10.798Z,334
2019-02-08T10:41:17.450Z,334
2019-02-08T10:42:24.646Z,335
2019-02-08T10:43:31.845Z,335
2019-02-08T10:44:39.045Z,336
2019-02-08T10:45:46.246Z,336
2019-02-08T10:46:53.171Z,335
2019-02-08T10:48:00.363Z,335
2019-02-08T10:49:07.561Z,334
2019-02-08T10:50:14.760Z,334
2019-02-08T10:51:21.954Z,335
2019-02-08T10:52:29.165Z,335
2019-02-08T10:53:36.361Z,336
2019-02-08T10:54:43.285Z,335
2019-02-08T10:55:50.479Z,334
2019-02-08T10:56:57.675Z,335
2019-02-08T10:58:04.881Z,334
2019-02-08T10:59:11.818Z,334
2019-02-08T11:00:19.019Z,334
2019-02-08T11:01:26.221Z,335
2019-02-08T11:02:33.426Z,336
2019-02-08T11:03:40.629Z,336
2019-02-08T11:04:47.827Z,337
2019-02-08T11:05:55.023Z,337
2019-02-08T11:07:01.944Z,337
2019-02-08T11:08:08.869Z,336
2019-02-08T11:09:16.074Z,336
2019-02-08T11:10:23.270Z,336
2019-02-08T11:11:30.462Z,336
2019-02-08T11:12:37.398Z,336
2019-02-08T11:13:44.323Z,336
2019-02-08T11:14:51.560Z,336
2019-02-08T11:15:58.754Z,336
2019-02-08T11:17:05.976Z,336
2019-02-08T11:18:12.904Z,336
2019-02-08T11:19:20.105Z,337
2019-02-08T11:20:27.030Z,336
2019-02-08T11:21:34.242Z,336
2019-02-08T11:22:41.461Z,336
2019-02-08T11:23:48.382Z,336
2019-02-08T11:24:55.579Z,335
2019-02-08T11:26:02.774Z,336
2019-02-08T11:27:09.988Z,334
2019-02-08T11:28:17.205Z,333
2019-02-08T11:29:24.416Z,333
2019-02-08T11:30:31.340Z,335
2019-02-08T11:31:37.989Z,333
2019-02-08T11:32:45.181Z,333
2019-02-08T11:33:52.384Z,334
2019-02-08T11:34:59.588Z,333
2019-02-08T11:36:06.904Z,334
2019-02-08T11:37:14.106Z,334
2019-02-08T11:38:21.033Z,335
2019-02-08T11:39:27.953Z,335
2019-02-08T11:40:35.150Z,335
2019-02-08T11:41:42.345Z,335
2019-02-08T11:42:49.540Z,336
2019-02-08T11:43:56.744Z,336
2019-02-08T11:45:03.664Z,336
2019-02-08T11:46:10.861Z,335
2019-02-08T11:47:17.785Z,335
2019-02-08T11:48:24.713Z,335
2019-02-08T11:49:31.911Z,335
2019-02-08T11:50:38.836Z,335
2019-02-08T11:51:46.030Z,336
2019-02-08T11:52:52.955Z,335
2019-02-08T11:53:59.880Z,336
2019-02-08T11:55:06.808Z,335
2019-02-08T11:56:14.006Z,335
2019-02-08T11:57:21.216Z,335
2019-02-08T11:58:28.448Z,334
2019-02-08T11:59:35.367Z,334
2019-02-08T12:00:42.569Z,333
2019-02-08T12:01:49.765Z,335
2019-02-08T12:02:56.961Z,335
2019-02-08T12:04:04.175Z,335
2019-02-08T12:05:11.384Z,335
2019-02-08T12:06:18.585Z,336
2019-02-08T12:07:25.768Z,335
2019-02-08T12:08:32.698Z,336
2019-02-08T12:09:39.350Z,336
2019-02-08T12:10:46.550Z,336
2019-02-08T12:11:53.742Z,336
2019-02-08T12:13:00.941Z,336
2019-02-08T12:14:07.872Z,335
2019-02-08T12:15:15.099Z,336
2019-02-08T12:16:22.304Z,336
2019-02-08T12:17:29.494Z,335
2019-02-08T12:18:36.694Z,335
2019-02-08T12:19:43.892Z,335
2019-02-08T12:20:51.087Z,335
2019-02-08T12:21:58.014Z,336
2019-02-08T12:23:05.210Z,334
2019-02-08T12:24:12.409Z,335
2019-02-08T12:25:19.604Z,335
2019-02-08T12:26:26.807Z,335
2019-02-08T12:27:34.010Z,335
2019-02-08T12:28:41.209Z,335
2019-02-08T12:29:48.412Z,335
2019-02-08T12:30:55.341Z,335
2019-02-08T12:32:02.262Z,335
2019-02-08T12:33:09.458Z,333
2019-02-08T12:34:16.652Z,333
2019-02-08T12:35:24.205Z,332
2019-02-08T12:36:31.404Z,332
2019-02-08T12:37:38.603Z,331
2019-02-08T12:38:45.795Z,329
2019-02-08T12:39:52.997Z,329
2019-02-08T12:41:00.205Z,329
2019-02-08T12:42:07.402Z,330
2019-02-08T12:43:14.597Z,329
2019-02-08T12:44:21.527Z,324
2019-02-08T12:45:28.729Z,322
2019-02-08T12:46:35.952Z,326
2019-02-08T12:47:43.148Z,325
2019-02-08T12:48:50.075Z,327
2019-02-08T12:49:57.295Z,326
2019-02-08T12:51:04.492Z,324
2019-02-08T12:52:11.691Z,320
2019-02-08T12:53:18.890Z,320
2019-02-08T12:54:26.094Z,322
2019-02-08T12:55:33.292Z,322
2019-02-08T12:56:46.603Z,327
2019-02-08T12:57:53.799Z,329
2019-02-08T12:59:01.009Z,330
2019-02-08T13:00:07.933Z,332
2019-02-08T13:01:14.870Z,330
2019-02-08T13:02:22.072Z,331
2019-02-08T13:03:29.281Z,330
2019-02-08T13:04:35.948Z,329
2019-02-08T13:05:42.865Z,331
2019-02-08T13:06:49.805Z,330
2019-02-08T13:07:57.000Z,330
2019-02-08T13:09:04.194Z,330
2019-02-08T13:10:11.388Z,330
2019-02-08T13:11:18.311Z,331
2019-02-08T13:12:25.508Z,332
2019-02-08T13:13:32.714Z,333
2019-02-08T13:14:39.637Z,332
2019-02-08T13:15:46.854Z,332
2019-02-08T13:16:54.061Z,332
2019-02-08T13:18:01.267Z,332
2019-02-08T13:19:08.467Z,331
2019-02-08T13:20:15.397Z,332
2019-02-08T13:21:22.052Z,332
2019-02-08T13:22:29.247Z,332
2019-02-08T13:23:36.448Z,332
2019-02-08T13:24:43.645Z,332
2019-02-08T13:25:50.846Z,332
2019-02-08T13:26:58.040Z,331
2019-02-08T13:28:05.237Z,331
2019-02-08T13:29:12.159Z,331
2019-02-08T13:30:19.360Z,331
2019-02-08T13:31:26.282Z,331
2019-02-08T13:32:33.480Z,331
2019-02-08T13:33:40.673Z,331
2019-02-08T13:34:47.888Z,331
2019-02-08T13:35:54.536Z,330
2019-02-08T13:37:01.756Z,331
2019-02-08T13:38:08.950Z,331
2019-02-08T13:39:16.156Z,332
2019-02-08T13:40:23.091Z,331
2019-02-08T13:41:30.020Z,332
2019-02-08T13:42:37.221Z,332
2019-02-08T13:43:44.418Z,332
2019-02-08T13:44:51.620Z,333
2019-02-08T13:45:58.823Z,333
2019-02-08T13:47:06.017Z,333
2019-02-08T13:48:13.220Z,333
2019-02-08T13:49:20.421Z,333
2019-02-08T13:50:27.357Z,333
2019-02-08T13:51:34.558Z,334
2019-02-08T13:52:41.486Z,334
2019-02-08T13:53:48.726Z,335
2019-02-08T13:54:55.619Z,335
2019-02-08T13:56:02.812Z,335
2019-02-08T13:57:09.742Z,335
2019-02-08T13:58:16.673Z,335
2019-02-08T13:59:23.926Z,335
2019-02-08T14:00:31.138Z,336
2019-02-08T14:01:38.343Z,335
2019-02-08T14:02:45.277Z,335
2019-02-08T14:03:52.475Z,336
2019-02-08T14:04:59.674Z,336
2019-02-08T14:06:06.611Z,337
2019-02-08T14:07:13.814Z,336
2019-02-08T14:08:22.633Z,337
2019-02-08T14:09:29.578Z,337
2019-02-08T14:10:36.762Z,337
2019-02-08T14:11:43.973Z,337
2019-02-08T14:12:50.911Z,337
2019-02-08T14:13:58.113Z,337
2019-02-08T14:15:05.038Z,336
2019-02-08T14:16:12.243Z,336
2019-02-08T14:17:19.447Z,335
2019-02-08T14:18:26.374Z,335
2019-02-08T14:19:33.571Z,335
2019-02-08T14:20:40.495Z,335
2019-02-08T14:21:47.153Z,335
2019-02-08T14:22:54.358Z,336
2019-02-08T14:24:01.559Z,336
2019-02-08T14:25:08.760Z,336
2019-02-08T14:26:15.687Z,336
2019-02-08T14:27:22.885Z,337
2019-02-08T14:28:29.819Z,337
2019-02-08T14:29:36.538Z,336
2019-02-08T14:30:43.741Z,338
2019-02-08T14:31:50.945Z,337
2019-02-08T14:32:59.791Z,337
2019-02-08T14:34:06.713Z,337
2019-02-08T14:35:13.983Z,336
2019-02-08T14:36:21.200Z,337
2019-02-08T14:37:28.407Z,336
2019-02-08T14:38:36.617Z,337
2019-02-08T14:39:43.818Z,338
2019-02-08T14:40:51.014Z,338
2019-02-08T14:41:57.943Z,337
2019-02-08T14:43:05.157Z,338
2019-02-08T14:44:12.087Z,338
2019-02-08T14:45:19.296Z,339
2019-02-08T14:46:26.503Z,338
2019-02-08T14:47:33.709Z,338
2019-02-08T14:48:40.923Z,338
2019-02-08T14:49:48.120Z,338
2019-02-08T14:50:54.771Z,338
2019-02-08T14:52:01.717Z,337
2019-02-08T14:53:08.916Z,337
2019-02-08T14:54:15.567Z,336
2019-02-08T14:55:22.775Z,336
2019-02-08T14:56:31.762Z,336
2019-02-08T14:57:38.695Z,336
2019-02-08T14:58:45.893Z,336
2019-02-08T14:59:53.094Z,336
2019-02-08T15:01:00.293Z,336
2019-02-08T15:02:07.490Z,336
2019-02-08T15:03:14.692Z,336
2019-02-08T15:04:21.894Z,337
2019-02-08T15:05:29.093Z,337
2019-02-08T15:06:36.288Z,337
2019-02-08T15:07:43.486Z,337
2019-02-08T15:08:50.420Z,336
2019-02-08T15:09:57.621Z,337
2019-02-08T15:11:04.829Z,337
2019-02-08T15:12:12.037Z,337
2019-02-08T15:13:19.235Z,337
2019-02-08T15:14:26.435Z,337
2019-02-08T15:15:33.628Z,337
2019-02-08T15:16:40.837Z,337
2019-02-08T15:17:47.792Z,337
2019-02-08T15:18:54.737Z,337
2019-02-08T15:20:01.692Z,338
2019-02-08T15:21:08.619Z,337
2019-02-08T15:22:16.024Z,337
2019-02-08T15:23:23.229Z,337
2019-02-08T15:24:30.156Z,337
2019-02-08T15:25:37.376Z,337